Time;durP1;ratioP1;P1;durP2;ratioP2;P2;SDS_P1;SDS_P2;PMS_P1;PMS_P2;Temp;Humidity;BMP_temperature;BMP_pressure;BME280_temperature;BME280_humidity;BME280_pressure;Samples;Min_cycle;Max_cycle;Signal;HPM_P1;HPM_P2
2023/11/24 00:00:46;;;;;;;;;;;;;;;3.69;62.95;99295.38;4401483;32;33898;-88
2023/11/24 00:03:14;;;;;;;;;;;;;;;4.15;60.79;99297.72;4414981;32;34449;-89
2023/11/24 00:05:41;;;;;;;;;;;;;;;3.90;60.75;99288.78;4415600;32;32450;-89
2023/11/24 00:08:08;;;;;;;;;;;;;;;3.80;61.21;99286.41;4396301;32;34188;-88
2023/11/24 00:10:36;;;;;;;;;;;;;;;3.71;61.88;99289.25;4400634;32;34383;-88
2023/11/24 00:13:04;;;;;;;;;;;;;;;3.94;60.18;99287.78;4396080;32;33470;-88
2023/11/24 00:15:31;;;;;;;;;;;;;;;3.70;61.01;99282.28;4393381;32;32546;-88
2023/11/24 00:18:01;;;;;;;;;;;;;;;3.62;61.95;99276.41;4408901;32;33416;-88
2023/11/24 00:20:29;;;;;;;;;;;;;;;3.75;60.97;99267.38;4405901;32;32687;-89
2023/11/24 00:22:56;;;;;;;;;;;;;;;3.73;60.83;99260.47;4395079;32;33788;-88
2023/11/24 00:25:24;;;;;;;;;;;;;;;3.65;61.23;99239.75;4396438;32;33722;-89
2023/11/24 00:27:54;;;;;;;;;;;;;;;3.55;60.75;99235.66;4393139;32;32846;-89
2023/11/24 00:30:22;;;;;;;;;;;;;;;3.58;61.14;99228.63;4422156;32;34149;-88
2023/11/24 00:32:50;;;;;;;;;;;;;;;3.64;61.60;99219.78;4390454;32;33518;-89
2023/11/24 00:35:17;;;;;;;;;;;;;;;3.87;60.98;99203.53;4408077;32;32279;-89
2023/11/24 00:37:45;;;;;;;;;;;;;;;4.12;59.58;99185.44;4389548;32;32756;-88
2023/11/24 00:40:14;;;;;;;;;;;;;;;3.93;60.28;99192.06;4407331;32;35180;-88
2023/11/24 00:42:42;;;;;;;;;;;;;;;3.70;60.78;99188.28;4408971;32;34958;-88
2023/11/24 00:45:09;;;;;;;;;;;;;;;3.67;61.59;99170.09;4403327;32;33646;-88
2023/11/24 00:47:37;;;;;;;;;;;;;;;3.65;61.87;99168.41;4388103;32;33136;-88
2023/11/24 00:50:05;;;;;;;;;;;;;;;3.77;61.76;99179.41;4395022;32;33226;-88
2023/11/24 00:52:33;;;;;;;;;;;;;;;3.64;62.64;99166.69;4401869;32;35002;-87
2023/11/24 00:55:02;;;;;;;;;;;;;;;4.17;60.59;99161.78;4390062;32;32783;-88
2023/11/24 00:57:30;;;;;;;;;;;;;;;3.94;60.87;99170.25;4395584;32;34552;-89
2023/11/24 00:59:58;;;;;;;;;;;;;;;3.83;61.82;99167.94;4409126;32;34869;-89
2023/11/24 01:02:26;;;;;;;;;;;;;;;3.64;61.87;99171.94;4409331;32;35114;-88
2023/11/24 01:04:53;;;;;;;;;;;;;;;3.65;61.92;99161.44;4401401;32;32538;-88
2023/11/24 01:07:20;;;;;;;;;;;;;;;3.84;61.78;99162.66;4408239;32;32913;-88
2023/11/24 01:09:49;;;;;;;;;;;;;;;3.70;61.84;99156.94;4392774;32;33232;-88
2023/11/24 01:12:17;;;;;;;;;;;;;;;3.66;62.31;99157.94;4408208;32;33900;-89
2023/11/24 01:14:44;;;;;;;;;;;;;;;3.77;61.26;99142.84;4388932;32;32393;-89
2023/11/24 01:17:12;;;;;;;;;;;;;;;3.74;61.89;99155.97;4389840;32;33403;-88
2023/11/24 01:19:39;;;;;;;;;;;;;;;3.83;61.27;99158.34;4393643;32;33180;-87
2023/11/24 01:22:07;;;;;;;;;;;;;;;3.59;62.43;99154.63;4397093;32;33999;-86
2023/11/24 01:24:34;;;;;;;;;;;;;;;3.75;62.47;99157.72;4407091;32;34202;-86
2023/11/24 01:27:02;;;;;;;;;;;;;;;3.97;61.52;99154.50;4407236;32;34410;-87
2023/11/24 01:29:32;;;;;;;;;;;;;;;3.84;61.58;99144.38;4387776;32;34320;-86
2023/11/24 01:31:59;;;;;;;;;;;;;;;3.72;61.91;99134.28;4407413;32;33829;-87
2023/11/24 01:34:29;;;;;;;;;;;;;;;3.83;62.05;99127.00;4413999;32;34278;-85
2023/11/24 01:36:56;;;;;;;;;;;;;;;3.98;61.00;99124.87;4414930;32;33875;-88
2023/11/24 01:39:24;;;;;;;;;;;;;;;3.93;61.30;99116.31;4396326;32;31955;-88
2023/11/24 01:41:51;;;;;;;;;;;;;;;3.74;61.62;99111.59;4401114;32;33967;-86
2023/11/24 01:44:22;;;;;;;;;;;;;;;3.76;61.58;99099.38;4409583;32;32333;-87
2023/11/24 01:46:50;;;;;;;;;;;;;;;3.72;61.73;99082.06;4409098;32;33803;-86
2023/11/24 01:49:18;;;;;;;;;;;;;;;3.71;61.45;99077.75;4416214;32;33938;-87
2023/11/24 01:51:45;;;;;;;;;;;;;;;3.71;61.42;99069.91;4407504;32;32941;-87
2023/11/24 01:54:13;;;;;;;;;;;;;;;3.69;62.49;99063.84;4417657;32;31103;-88
2023/11/24 01:56:41;;;;;;;;;;;;;;;3.70;61.70;99072.53;4407503;32;33726;-87
2023/11/24 01:59:09;;;;;;;;;;;;;;;3.67;62.36;99062.19;4416635;32;33981;-87
2023/11/24 02:01:37;;;;;;;;;;;;;;;3.60;62.77;99071.94;4409354;32;35077;-87
2023/11/24 02:04:05;;;;;;;;;;;;;;;3.76;62.04;99067.19;4384534;32;33550;-87
2023/11/24 02:06:32;;;;;;;;;;;;;;;4.14;60.83;99058.25;4414473;32;32799;-87
2023/11/24 02:09:00;;;;;;;;;;;;;;;3.93;60.71;99051.00;4400250;32;34199;-87
2023/11/24 02:11:28;;;;;;;;;;;;;;;3.87;60.98;99048.59;4408927;32;33510;-87
2023/11/24 02:13:55;;;;;;;;;;;;;;;3.74;61.65;99043.69;4421846;32;33286;-87
2023/11/24 02:16:23;;;;;;;;;;;;;;;4.16;60.28;99045.97;4396073;32;32927;-89
2023/11/24 02:18:50;;;;;;;;;;;;;;;3.80;60.58;99022.66;4385240;32;32988;-89
2023/11/24 02:21:18;;;;;;;;;;;;;;;3.59;61.84;99008.44;4397299;32;34984;-89
2023/11/24 02:23:46;;;;;;;;;;;;;;;3.70;61.52;99000.28;4390646;32;32339;-89
2023/11/24 02:26:14;;;;;;;;;;;;;;;4.03;60.70;98998.44;4410890;32;33042;-88
2023/11/24 02:28:42;;;;;;;;;;;;;;;4.13;60.41;98993.84;4407816;32;33520;-88
2023/11/24 02:31:11;;;;;;;;;;;;;;;3.55;62.38;98995.50;4400390;32;35172;-88
2023/11/24 02:33:40;;;;;;;;;;;;;;;3.72;62.00;98982.84;4388740;32;32902;-86
2023/11/24 02:36:17;;;;;;;;;;;;;;;3.77;62.44;98970.50;4407918;32;33018;-87
2023/11/24 02:38:46;;;;;;;;;;;;;;;3.87;62.41;98959.78;4410639;32;34178;-87
2023/11/24 02:41:15;;;;;;;;;;;;;;;3.88;62.63;98962.34;4397666;32;34437;-86
2023/11/24 02:43:42;;;;;;;;;;;;;;;3.78;63.00;98953.94;4402808;32;33082;-85
2023/11/24 02:46:13;;;;;;;;;;;;;;;3.77;63.24;98949.63;4415932;32;33378;-88
2023/11/24 02:48:42;;;;;;;;;;;;;;;3.96;63.12;98944.69;4412494;32;34260;-88
2023/11/24 02:51:10;;;;;;;;;;;;;;;3.97;63.39;98937.72;4410508;32;34527;-88
2023/11/24 02:53:37;;;;;;;;;;;;;;;4.45;61.94;98916.16;4385799;32;33379;-88
2023/11/24 02:56:05;;;;;;;;;;;;;;;4.38;62.12;98907.66;4392186;32;32998;-90
2023/11/24 02:58:32;;;;;;;;;;;;;;;4.61;61.84;98917.38;4395708;32;33109;-90
2023/11/24 03:01:00;;;;;;;;;;;;;;;4.54;62.24;98921.06;4410637;32;34058;-90
2023/11/24 03:03:28;;;;;;;;;;;;;;;4.77;61.84;98918.53;4407969;32;34135;-90
2023/11/24 03:05:55;;;;;;;;;;;;;;;4.49;62.96;98915.16;4418199;32;34999;-89
2023/11/24 03:08:23;;;;;;;;;;;;;;;4.45;62.92;98910.91;4385552;32;33710;-88
2023/11/24 03:10:51;;;;;;;;;;;;;;;4.84;62.29;98914.81;4385783;32;33123;-88
2023/11/24 03:13:19;;;;;;;;;;;;;;;4.81;62.30;98920.16;4398270;32;33312;-88
2023/11/24 03:15:46;;;;;;;;;;;;;;;4.73;62.68;98916.94;4387152;32;32983;-88
2023/11/24 03:18:16;;;;;;;;;;;;;;;4.53;63.40;98914.16;4403942;32;33255;-89
2023/11/24 03:20:44;;;;;;;;;;;;;;;4.40;63.62;98902.38;4393742;32;33268;-89
2023/11/24 03:23:11;;;;;;;;;;;;;;;4.35;64.11;98892.94;4388967;32;31924;-89
2023/11/24 03:25:39;;;;;;;;;;;;;;;4.42;64.17;98890.13;4390361;32;32934;-89
2023/11/24 03:28:07;;;;;;;;;;;;;;;4.32;64.60;98872.16;4408644;32;33457;-87
2023/11/24 03:30:34;;;;;;;;;;;;;;;4.52;64.33;98875.84;4407263;32;33377;-87
2023/11/24 03:33:04;;;;;;;;;;;;;;;4.96;62.87;98868.19;4389321;32;33100;-87
2023/11/24 03:35:33;;;;;;;;;;;;;;;4.99;62.86;98866.34;4409265;32;34043;-87
2023/11/24 03:38:00;;;;;;;;;;;;;;;5.00;62.64;98848.88;4394215;32;33079;-87
2023/11/24 03:40:28;;;;;;;;;;;;;;;4.72;63.75;98849.00;4412996;32;34555;-88
2023/11/24 03:42:55;;;;;;;;;;;;;;;4.69;64.12;98836.88;4395358;32;32113;-88
2023/11/24 03:45:24;;;;;;;;;;;;;;;5.02;63.16;98826.97;4388343;32;34326;-88
2023/11/24 03:47:52;;;;;;;;;;;;;;;4.92;63.31;98828.22;4407253;32;34251;-87
2023/11/24 03:50:20;;;;;;;;;;;;;;;4.81;63.67;98823.38;4407936;32;34415;-88
2023/11/24 03:52:47;;;;;;;0.93;0.80;;;;;;;5.18;63.06;98824.66;4395896;32;32215;-88
2023/11/24 03:55:15;;;;;;;2.53;2.28;;;;;;;5.54;61.75;98811.06;4407695;32;33191;-88
2023/11/24 03:57:44;;;;;;;1.10;1.10;;;;;;;4.99;63.23;98810.56;4387467;32;33841;-88
2023/11/24 04:00:13;;;;;;;0.70;0.70;;;;;;;5.04;63.58;98812.09;4407651;32;34824;-88
2023/11/24 04:02:44;;;;;;;0.30;0.30;;;;;;;4.97;63.83;98801.88;4408516;32;33562;-88
2023/11/24 04:05:13;;;;;;;1.50;1.40;;;;;;;4.82;63.97;98806.78;4394844;32;32376;-87
2023/11/24 04:07:42;;;;;;;1.80;1.27;;;;;;;4.94;64.55;98796.75;4408649;32;34017;-87
2023/11/24 04:10:10;;;;;;;0.73;0.73;;;;;;;5.02;63.95;98786.88;4395858;32;34095;-88
2023/11/24 04:12:38;;;;;;;0.43;0.43;;;;;;;4.98;64.62;98780.03;4396107;32;33255;-88
2023/11/24 04:15:06;;;;;;;1.17;0.95;;;;;;;4.94;65.31;98774.09;4393905;32;34140;-88
2023/11/24 04:17:36;;;;;;;0.62;0.62;;;;;;;5.11;64.30;98768.22;4407936;32;32459;-87
2023/11/24 04:20:04;;;;;;;1.20;1.20;;;;;;;5.20;63.94;98754.78;4394176;32;33674;-87
2023/11/24 04:22:34;;;;;;;2.03;1.75;;;;;;;5.17;64.89;98747.03;4420495;32;34045;-87
2023/11/24 04:25:01;;;;;;;0.80;0.80;;;;;;;5.30;64.33;98737.81;4408159;32;35560;-88
2023/11/24 04:27:31;;;;;;;1.48;1.37;;;;;;;5.29;64.33;98736.09;4407836;32;32565;-87
2023/11/24 04:29:59;;;;;;;0.98;0.98;;;;;;;5.44;64.05;98728.56;4395744;32;35504;-87
2023/11/24 04:32:30;;;;;;;0.55;0.55;;;;;;;5.60;62.87;98727.00;4420385;32;31848;-87
2023/11/24 04:34:58;;;;;;;0.85;0.85;;;;;;;5.45;64.02;98730.25;4408017;32;32928;-87
2023/11/24 04:37:26;;;;;;;0.75;0.75;;;;;;;5.38;64.18;98717.41;4375431;32;34222;-87
2023/11/24 04:39:55;;;;;;;1.42;1.27;;;;;;;5.48;63.97;98717.91;4395270;32;32883;-88
2023/11/24 04:42:24;;;;;;;1.12;0.80;;;;;;;5.59;63.87;98712.22;4400658;32;32184;-88
2023/11/24 04:44:53;;;;;;;1.73;1.58;;;;;;;5.45;64.12;98714.53;4408031;32;33715;-88
2023/11/24 04:47:21;;;;;;;3.20;2.58;;;;;;;5.59;63.73;98709.59;4407235;32;32147;-87
2023/11/24 04:49:49;;;;;;;1.77;1.67;;;;;;;5.49;64.44;98703.03;4400401;32;34768;-88
2023/11/24 04:52:17;;;;;;;1.10;1.10;;;;;;;5.99;62.44;98693.13;4396384;32;32065;-88
2023/11/24 04:54:44;;;;;;;1.95;1.85;;;;;;;5.90;62.43;98688.25;4388893;32;33216;-88
2023/11/24 04:57:12;;;;;;;2.00;1.90;;;;;;;5.60;63.54;98682.50;4396092;32;34340;-88
2023/11/24 04:59:42;;;;;;;2.92;1.98;;;;;;;5.44;64.46;98681.44;4395841;32;34313;-88
2023/11/24 05:02:10;;;;;;;6.12;3.50;;;;;;;5.53;64.34;98678.44;4401016;32;33347;-89
2023/11/24 05:04:38;;;;;;;1.85;1.62;;;;;;;5.71;63.90;98687.31;4395618;32;33329;-88
2023/11/24 05:07:06;;;;;;;0.68;0.68;;;;;;;5.93;63.38;98679.41;4401471;32;32925;-90
2023/11/24 05:09:33;;;;;;;2.15;1.98;;;;;;;5.72;63.73;98674.13;4396678;32;32633;-89
2023/11/24 05:12:01;;;;;;;1.85;1.73;;;;;;;5.73;64.13;98675.84;4382326;32;32578;-88
2023/11/24 05:14:29;;;;;;;2.65;2.45;;;;;;;5.83;63.27;98666.66;4408141;32;32476;-88
2023/11/24 05:16:57;;;;;;;2.87;2.67;;;;;;;5.48;64.47;98664.69;4421909;32;33248;-88
2023/11/24 05:19:25;;;;;;;2.08;0.82;;;;;;;5.54;64.33;98653.94;4396403;32;34384;-88
2023/11/24 05:21:53;;;;;;;2.12;2.03;;;;;;;5.58;64.73;98668.63;4421809;32;31719;-88
2023/11/24 05:24:21;;;;;;;1.02;0.95;;;;;;;5.90;63.80;98660.25;4396827;32;32366;-88
2023/11/24 05:26:48;;;;;;;0.55;0.55;;;;;;;5.68;64.57;98654.22;4391661;32;34361;-89
2023/11/24 05:29:17;;;;;;;3.17;2.97;;;;;;;5.61;64.71;98644.94;4410758;32;32915;-89
2023/11/24 05:31:44;;;;;;;3.42;3.12;;;;;;;5.56;65.15;98647.75;4397726;32;33657;-88
2023/11/24 05:34:13;;;;;;;2.62;2.42;;;;;;;5.74;64.77;98638.25;4397925;32;33913;-86
2023/11/24 05:36:44;;;;;;;0.32;0.32;;;;;;;5.68;64.83;98630.66;4406261;32;34173;-86
2023/11/24 05:39:12;;;;;;;3.25;2.95;;;;;;;6.21;63.08;98624.03;4395434;32;33597;-87
2023/11/24 05:41:40;;;;;;;1.60;1.50;;;;;;;5.82;63.90;98619.59;4396931;32;32255;-88
2023/11/24 05:44:08;;;;;;;1.23;1.23;;;;;;;5.85;63.35;98617.69;4384294;32;33624;-88
2023/11/24 05:46:35;;;;;;;1.27;1.25;;;;;;;5.79;64.05;98610.12;4396767;32;32118;-88
2023/11/24 05:49:03;;;;;;;0.68;0.68;;;;;;;5.65;65.42;98600.22;4396768;32;33657;-89
2023/11/24 05:51:32;;;;;;;0.75;0.75;;;;;;;5.68;65.15;98601.00;4397683;32;33638;-87
2023/11/24 05:54:00;;;;;;;2.12;2.03;;;;;;;5.79;65.22;98591.78;4405680;32;33925;-88
2023/11/24 05:56:28;;;;;;;0.90;0.90;;;;;;;5.69;65.50;98595.69;4398251;32;34035;-88
2023/11/24 05:58:56;;;;;;;3.50;1.58;;;;;;;5.62;66.20;98581.19;4396758;32;32182;-87
2023/11/24 06:01:23;;;;;;;0.30;0.30;;;;;;;5.81;65.35;98584.69;4408976;32;33485;-87
2023/11/24 06:03:51;;;;;;;1.30;1.20;;;;;;;6.24;63.48;98590.66;4409814;32;34173;-87
2023/11/24 06:06:19;;;;;;;5.68;3.80;;;;;;;6.00;63.58;98599.63;4408233;32;33638;-87
2023/11/24 06:08:47;;;;;;;2.22;2.08;;;;;;;5.96;64.15;98592.84;4395770;32;33322;-88
2023/11/24 06:11:17;;;;;;;2.85;2.25;;;;;;;5.89;64.28;98598.31;4402896;32;34791;-87
2023/11/24 06:13:46;;;;;;;0.85;0.85;;;;;;;5.80;64.15;98580.38;4396937;32;34620;-87
2023/11/24 06:16:14;;;;;;;0.25;0.25;;;;;;;5.82;63.46;98580.31;4408532;32;33655;-87
2023/11/24 06:18:44;;;;;;;3.20;2.00;;;;;;;6.09;63.38;98594.00;4395426;32;34536;-87
2023/11/24 06:21:12;;;;;;;2.20;1.75;;;;;;;6.41;62.04;98588.12;4398617;32;33410;-87
2023/11/24 06:23:40;;;;;;;1.73;1.60;;;;;;;6.58;61.53;98579.47;4396286;32;34178;-88
2023/11/24 06:26:09;;;;;;;3.15;2.92;;;;;;;6.08;63.03;98581.81;4401350;32;33822;-89
2023/11/24 06:28:36;;;;;;;2.35;2.15;;;;;;;5.84;63.36;98587.19;4411754;32;33925;-89
2023/11/24 06:31:06;;;;;;;0.82;0.82;;;;;;;5.82;63.83;98594.25;4390735;32;32436;-89
2023/11/24 06:33:35;;;;;;;2.37;2.22;;;;;;;5.85;64.14;98588.03;4396182;32;32442;-89
2023/11/24 06:36:03;;;;;;;2.70;2.60;;;;;;;5.71;64.92;98604.34;4387679;32;33391;-89
2023/11/24 06:38:30;;;;;;;1.83;1.50;;;;;;;6.36;62.46;98592.75;4383170;32;33081;-89
2023/11/24 06:40:58;;;;;;;5.80;3.00;;;;;;;6.09;63.71;98601.84;4408732;32;32402;-89
2023/11/24 06:43:26;;;;;;;0.50;0.50;;;;;;;5.69;64.57;98606.16;4398234;32;33749;-89
2023/11/24 06:45:54;;;;;;;3.10;2.42;;;;;;;5.76;64.98;98602.38;4421254;32;34128;-89
2023/11/24 06:48:23;;;;;;;0.25;0.25;;;;;;;5.87;65.01;98604.53;4394833;32;33305;-88
2023/11/24 06:50:50;;;;;;;2.05;1.85;;;;;;;5.77;65.65;98619.78;4401646;32;33379;-89
2023/11/24 06:53:18;;;;;;;2.25;2.12;;;;;;;6.21;64.31;98606.53;4393962;32;34217;-89
2023/11/24 06:55:47;;;;;;;6.18;2.70;;;;;;;6.05;64.26;98608.16;4380921;32;33181;-89
2023/11/24 06:58:14;;;;;;;0.50;0.50;;;;;;;6.01;64.97;98612.66;4391388;32;33658;-89
2023/11/24 07:00:42;;;;;;;2.70;2.55;;;;;;;6.03;64.57;98612.59;4395154;32;33801;-89
2023/11/24 07:03:10;;;;;;;3.95;1.08;;;;;;;5.94;65.76;98603.38;4395783;32;31222;-88
2023/11/24 07:05:38;;;;;;;1.77;1.67;;;;;;;6.04;65.57;98612.53;4413630;32;32417;-89
2023/11/24 07:08:06;;;;;;;1.30;1.30;;;;;;;6.12;65.41;98612.19;4383949;32;33360;-89
2023/11/24 07:10:34;;;;;;;3.75;3.15;;;;;;;6.11;66.42;98607.88;4382709;32;32952;-87
2023/11/24 07:13:02;;;;;;;4.00;3.67;;;;;;;6.50;64.87;98620.09;4394905;32;33597;-89
2023/11/24 07:15:31;;;;;;;5.05;4.45;;;;;;;6.40;64.82;98612.63;4396039;32;33765;-89
2023/11/24 07:17:59;;;;;;;3.62;3.10;;;;;;;6.58;64.62;98612.72;4383446;32;34316;-88
2023/11/24 07:20:29;;;;;;;6.82;2.17;;;;;;;6.24;66.49;98614.25;4397075;32;34244;-87
2023/11/24 07:22:57;;;;;;;2.25;1.35;;;;;;;6.67;67.19;98612.28;4402148;32;33262;-87
2023/11/24 07:25:26;;;;;;;1.58;1.48;;;;;;;6.88;67.46;98610.41;4396270;32;33791;-87
2023/11/24 07:27:54;;;;;;;0.65;0.65;;;;;;;7.31;67.23;98616.22;4381628;32;33816;-88
2023/11/24 07:30:26;;;;;;;0.88;0.88;;;;;;;7.31;68.01;98611.84;4401433;32;33613;-86
2023/11/24 07:32:54;;;;;;;;;;;;;;;7.43;67.63;98616.47;4395327;32;34115;-86
2023/11/24 07:35:21;;;;;;;0.37;0.37;;;;;;;7.59;66.45;98616.53;4402349;32;33774;-87
2023/11/24 07:37:49;;;;;;;0.47;0.47;;;;;;;8.09;65.55;98607.84;4392300;32;33556;-87
2023/11/24 07:40:17;;;;;;;0.00;0.00;;;;;;;8.42;64.15;98615.75;4421182;32;33062;-85
2023/11/24 07:42:49;;;;;;;0.52;0.52;;;;;;;8.55;63.83;98623.00;4406934;32;33562;-85
2023/11/24 07:45:17;;;;;;;0.00;0.00;;;;;;;8.55;63.73;98631.75;4406852;32;32674;-85
2023/11/24 07:47:44;;;;;;;0.05;0.05;;;;;;;8.72;62.87;98615.00;4400588;32;33204;-85
2023/11/24 07:50:12;;;;;;;0.20;0.20;;;;;;;8.71;63.33;98606.28;4394216;32;32032;-86
2023/11/24 07:52:43;;;;;;;0.52;0.30;;;;;;;9.03;62.47;98611.53;4395773;32;32387;-86
2023/11/24 07:55:13;;;;;;;0.10;0.10;;;;;;;9.27;61.60;98619.00;4406593;32;33786;-86
2023/11/24 07:57:41;;;;;;;0.20;0.20;;;;;;;9.38;61.65;98611.31;4408333;32;32733;-86
2023/11/24 08:00:12;;;;;;;0.50;0.08;;;;;;;9.43;61.52;98615.38;4403257;32;33645;-86
2023/11/24 08:02:44;;;;;;;0.93;0.55;;;;;;;9.36;62.01;98611.41;4407264;32;34133;-86
2023/11/24 08:05:12;;;;;;;0.00;0.00;;;;;;;9.59;61.62;98619.75;4409310;32;34380;-85
2023/11/24 08:07:40;;;;;;;0.13;0.13;;;;;;;9.76;61.11;98619.59;4406408;32;31650;-86
2023/11/24 08:10:08;;;;;;;0.25;0.25;;;;;;;9.68;61.68;98625.31;4420733;32;34198;-86
2023/11/24 08:12:36;;;;;;;0.00;0.00;;;;;;;9.29;62.76;98632.91;4393256;32;32485;-86
2023/11/24 08:15:05;;;;;;;1.98;0.65;;;;;;;9.79;61.31;98627.34;4417962;32;33682;-86
2023/11/24 08:17:33;;;;;;;0.62;0.55;;;;;;;9.49;62.29;98628.22;4419926;32;34436;-86
2023/11/24 08:20:00;;;;;;;0.20;0.20;;;;;;;9.63;61.73;98618.62;4420836;32;33200;-86
2023/11/24 08:22:28;;;;;;;0.52;0.43;;;;;;;9.64;61.53;98617.72;4410073;32;33692;-85
2023/11/24 08:24:57;;;;;;;0.00;0.00;;;;;;;10.02;59.30;98610.16;4403463;32;32838;-86
2023/11/24 08:27:25;;;;;;;0.00;0.00;;;;;;;9.66;60.70;98629.84;4404968;32;33352;-85
2023/11/24 08:29:53;;;;;;;0.30;0.30;;;;;;;9.83;59.90;98623.59;4392691;32;31801;-85
2023/11/24 08:32:21;;;;;;;0.00;0.00;;;;;;;10.11;58.75;98611.34;4395328;32;32931;-85
2023/11/24 08:34:49;;;;;;;0.00;0.00;;;;;;;10.10;58.59;98610.50;4407141;32;34005;-86
2023/11/24 08:37:17;;;;;;;0.28;0.15;;;;;;;10.25;57.34;98621.94;4401084;32;34750;-86
2023/11/24 08:39:45;;;;;;;0.20;0.20;;;;;;;10.18;57.02;98613.53;4405569;32;33621;-88
2023/11/24 08:42:13;;;;;;;0.22;0.22;;;;;;;9.96;57.50;98619.25;4395084;32;34091;-88
2023/11/24 08:44:40;;;;;;;0.10;0.10;;;;;;;9.56;58.69;98643.66;4412473;32;33773;-88
2023/11/24 08:47:08;;;;;;;0.32;0.32;;;;;;;10.25;57.32;98645.69;4387110;32;34624;-88
2023/11/24 08:49:36;;;;;;;0.10;0.10;;;;;;;10.55;56.57;98643.00;4402743;32;33301;-88
2023/11/24 08:52:04;;;;;;;0.10;0.10;;;;;;;9.98;57.58;98640.28;4402954;32;33904;-88
2023/11/24 08:54:32;;;;;;;0.00;0.00;;;;;;;10.30;55.83;98627.78;4404749;32;33212;-88
2023/11/24 08:56:59;;;;;;;0.03;0.03;;;;;;;10.13;55.79;98639.34;4406891;32;34394;-88
2023/11/24 08:59:28;;;;;;;0.00;0.00;;;;;;;10.08;55.04;98632.66;4394259;32;33920;-88
2023/11/24 09:01:56;;;;;;;0.08;0.08;;;;;;;9.83;54.98;98623.59;4402022;32;33836;-87
2023/11/24 09:04:27;;;;;;;0.00;0.00;;;;;;;10.04;53.03;98602.97;4380835;32;33062;-88
2023/11/24 09:06:56;;;;;;;0.00;0.00;;;;;;;10.11;53.21;98592.91;4395203;32;34194;-88
2023/11/24 09:09:24;;;;;;;0.00;0.00;;;;;;;9.90;53.35;98592.41;4406393;32;34425;-88
2023/11/24 09:11:52;;;;;;;0.00;0.00;;;;;;;10.51;51.16;98594.81;4398691;32;34170;-88
2023/11/24 09:14:20;;;;;;;0.00;0.00;;;;;;;10.62;50.30;98585.38;4395284;32;32672;-88
2023/11/24 09:16:49;;;;;;;0.00;0.00;;;;;;;10.61;51.14;98581.03;4413890;32;34060;-88
2023/11/24 09:19:17;;;;;;;0.00;0.00;;;;;;;10.54;50.53;98572.69;4389026;32;32239;-88
2023/11/24 09:21:48;;;;;;;0.05;0.05;;;;;;;10.90;49.10;98587.09;4408111;32;33827;-88
2023/11/24 09:24:17;;;;;;;2.10;0.20;;;;;;;11.26;48.83;98575.94;4415093;32;33928;-88
2023/11/24 09:26:45;;;;;;;0.00;0.00;;;;;;;10.75;48.91;98565.16;4406142;32;33423;-88
2023/11/24 09:29:13;;;;;;;0.85;0.43;;;;;;;10.99;48.81;98558.31;4407631;32;33530;-88
2023/11/24 09:31:41;;;;;;;4.35;0.80;;;;;;;10.97;47.99;98546.16;4379445;32;33536;-88
2023/11/24 09:34:09;;;;;;;0.00;0.00;;;;;;;10.97;47.74;98535.59;4393165;32;34423;-88
2023/11/24 09:36:36;;;;;;;0.25;0.25;;;;;;;10.51;49.01;98539.38;4406288;32;34830;-87
2023/11/24 09:39:05;;;;;;;0.00;0.00;;;;;;;10.84;47.36;98521.50;4399907;32;31846;-88
2023/11/24 09:41:39;;;;;;;0.00;0.00;;;;;;;10.88;47.60;98513.28;4393605;32;32329;-88
2023/11/24 09:44:10;;;;;;;0.00;0.00;;;;;;;10.92;46.26;98524.44;4406892;32;32571;-88
2023/11/24 09:46:39;;;;;;;0.35;0.20;;;;;;;10.90;46.91;98531.66;4394130;32;32514;-88
2023/11/24 09:49:18;;;;;;;0.52;0.52;;;;;;;11.26;45.42;98512.53;4406689;32;32260;-88
2023/11/24 09:51:46;;;;;;;0.00;0.00;;;;;;;10.66;48.35;98507.69;4405975;32;34462;-88
2023/11/24 09:54:14;;;;;;;0.00;0.00;;;;;;;11.02;46.15;98497.38;4406628;32;33924;-88
2023/11/24 09:56:43;;;;;;;0.00;0.00;;;;;;;11.26;45.06;98496.69;4409003;32;34540;-88
2023/11/24 09:59:13;;;;;;;0.00;0.00;;;;;;;11.47;45.55;98484.63;4408084;32;33547;-89
2023/11/24 10:01:42;;;;;;;0.10;0.10;;;;;;;11.43;43.82;98488.44;4396660;32;33504;-89
2023/11/24 10:04:12;;;;;;;0.85;0.68;;;;;;;11.50;44.21;98479.16;4408556;32;33186;-88
2023/11/24 10:06:43;;;;;;;0.00;0.00;;;;;;;12.03;43.41;98474.59;4396758;32;32759;-89
2023/11/24 10:09:12;;;;;;;0.00;0.00;;;;;;;11.86;44.13;98468.78;4397140;32;32882;-88
2023/11/24 10:11:40;;;;;;;0.00;0.00;;;;;;;12.02;43.17;98459.69;4390132;32;32799;-88
2023/11/24 10:14:11;;;;;;;0.00;0.00;;;;;;;11.43;45.11;98455.88;4395103;32;33310;-88
2023/11/24 10:16:42;;;;;;;0.00;0.00;;;;;;;10.52;46.95;98459.25;4396027;32;33351;-88
2023/11/24 10:19:14;;;;;;;1.35;1.08;;;;;;;10.16;48.68;98461.56;4395096;32;33114;-88
2023/11/24 10:21:51;;;;;;;0.00;0.00;;;;;;;10.89;46.50;98472.69;4411126;32;34652;-88
2023/11/24 10:24:21;;;;;;;0.00;0.00;;;;;;;10.68;47.54;98485.53;4406767;32;34047;-88
2023/11/24 10:26:50;;;;;;;0.00;0.00;;;;;;;10.42;48.15;98468.72;4395420;32;33001;-88
2023/11/24 10:29:19;;;;;;;0.10;0.10;;;;;;;10.62;47.07;98456.03;4402699;32;34335;-88
2023/11/24 10:31:46;;;;;;;0.00;0.00;;;;;;;10.10;48.15;98441.72;4401879;32;33407;-86
2023/11/24 10:34:16;;;;;;;0.00;0.00;;;;;;;10.75;46.76;98427.88;4395171;32;33341;-87
2023/11/24 10:36:45;;;;;;;0.03;0.03;;;;;;;10.20;49.14;98432.28;4388909;32;34741;-88
2023/11/24 10:39:14;;;;;;;0.00;0.00;;;;;;;10.74;47.61;98426.19;4405395;32;33221;-90
2023/11/24 10:41:43;;;;;;;0.00;0.00;;;;;;;10.57;47.46;98429.94;4380449;32;33338;-88
2023/11/24 10:44:12;;;;;;;0.00;0.00;;;;;;;10.63;47.53;98431.31;4404967;32;33851;-87
2023/11/24 10:46:45;;;;;;;0.00;0.00;;;;;;;10.64;47.35;98419.84;4390994;32;32742;-87
2023/11/24 10:49:34;;;;;;;0.05;0.05;;;;;;;10.78;47.07;98406.56;4404815;32;32619;-87
2023/11/24 10:52:07;;;;;;;3.92;3.08;;;;;;;10.30;48.30;98416.72;4416755;32;34009;-87
2023/11/24 10:54:39;;;;;;;1.45;1.40;;;;;;;10.02;49.84;98407.09;4393413;32;33499;-87
2023/11/24 10:57:07;;;;;;;0.00;0.00;;;;;;;10.28;48.60;98412.50;4406853;32;34949;-88
2023/11/24 10:59:38;;;;;;;0.10;0.10;;;;;;;10.20;48.53;98390.06;4405576;32;34253;-87
2023/11/24 11:02:08;;;;;;;0.00;0.00;;;;;;;10.37;48.71;98380.25;4393738;32;34449;-87
2023/11/24 11:04:55;;;;;;;0.00;0.00;;;;;;;10.40;48.55;98365.09;4392462;32;33165;-87
2023/11/24 11:07:52;;;;;;;0.00;0.00;;;;;;;10.16;48.52;98356.94;4405951;32;33019;-86
2023/11/24 11:10:28;;;;;;;0.75;0.52;;;;;;;10.04;48.38;98370.06;4383679;32;33275;-87
2023/11/24 11:12:57;;;;;;;1.45;0.90;;;;;;;10.05;48.56;98380.50;4394170;32;33889;-88
2023/11/24 11:15:29;;;;;;;0.30;0.30;;;;;;;10.42;47.61;98394.84;4396527;32;33223;-87
2023/11/24 11:18:16;;;;;;;0.00;0.00;;;;;;;10.49;47.53;98393.50;4402894;32;35175;-87
2023/11/24 11:20:45;;;;;;;0.00;0.00;;;;;;;9.78;48.28;98393.69;4394031;32;33939;-87
2023/11/24 11:23:15;;;;;;;0.00;0.00;;;;;;;9.68;48.93;98392.53;4385091;32;33235;-87
2023/11/24 11:25:51;;;;;;;0.00;0.00;;;;;;;9.97;48.29;98393.34;4396065;32;34415;-87
2023/11/24 11:28:23;;;;;;;0.00;0.00;;;;;;;10.56;46.52;98403.66;4408393;32;33533;-87
2023/11/24 11:30:59;;;;;;;0.00;0.00;;;;;;;10.13;47.16;98404.59;4415065;32;33709;-87
2023/11/24 11:33:33;;;;;;;0.00;0.00;;;;;;;10.00;47.37;98396.62;4396616;32;33416;-87
2023/11/24 11:36:10;;;;;;;0.00;0.00;;;;;;;9.82;47.69;98384.59;4396304;32;34127;-87
2023/11/24 11:38:43;;;;;;;0.05;0.05;;;;;;;9.88;47.83;98373.69;4408543;32;35894;-88
2023/11/24 11:41:41;;;;;;;0.00;0.00;;;;;;;9.67;48.47;98369.75;4408545;32;33334;-87
2023/11/24 11:44:33;;;;;;;0.90;0.90;;;;;;;10.25;47.00;98360.78;4408485;32;34239;-87
2023/11/24 11:47:24;;;;;;;0.00;0.00;;;;;;;9.93;48.51;98358.44;4408749;32;33844;-87
2023/11/24 11:49:54;;;;;;;0.10;0.10;;;;;;;10.16;47.87;98363.97;4408852;32;34485;-87
2023/11/24 11:52:25;;;;;;;0.00;0.00;;;;;;;9.96;48.53;98360.84;4389297;32;33324;-87
2023/11/24 11:54:55;;;;;;;11.07;0.43;;;;;;;10.06;48.45;98365.53;4393940;32;33877;-87
2023/11/24 11:57:25;;;;;;;0.00;0.00;;;;;;;9.76;49.53;98366.53;4402075;32;32888;-86
2023/11/24 11:59:53;;;;;;;1.00;0.30;;;;;;;9.83;49.27;98364.38;4399244;32;33615;-87
2023/11/24 12:02:22;;;;;;;1.17;1.00;;;;;;;9.94;49.25;98365.38;4399991;32;31812;-87
2023/11/24 12:04:51;;;;;;;0.32;0.32;;;;;;;10.19;48.20;98361.16;4408846;32;33462;-87
2023/11/24 12:07:20;;;;;;;0.25;0.00;;;;;;;10.15;48.16;98375.50;4395860;32;34926;-87
2023/11/24 12:09:49;;;;;;;0.00;0.00;;;;;;;10.20;47.92;98362.84;4408070;32;33060;-87